Time;durP1;ratioP1;P1;durP2;ratioP2;P2;SDS_P1;SDS_P2;PMS_P1;PMS_P2;Temp;Humidity;BMP_temperature;BMP_pressure;BME280_temperature;BME280_humidity;BME280_pressure;Samples;Min_cycle;Max_cycle;Signal;HPM_P1;HPM_P2
2022/05/28 00:01:24;;;;;;;2.37;0.67;;;16.50;99.90;;;;;;6250432;23;20530;-91
2022/05/28 00:03:59;;;;;;;2.53;1.30;;;16.40;99.90;;;;;;6251591;23;20191;-91
2022/05/28 00:06:30;;;;;;;1.50;1.00;;;16.50;99.90;;;;;;6253701;23;20191;-90
2022/05/28 00:09:02;;;;;;;3.73;1.20;;;16.70;99.90;;;;;;6251145;23;20539;-91
2022/05/28 00:11:35;;;;;;;2.73;0.80;;;16.70;99.90;;;;;;6251373;23;20187;-89
2022/05/28 00:14:13;;;;;;;5.43;2.70;;;16.80;99.90;;;;;;6250981;22;20234;-90
2022/05/28 00:16:46;;;;;;;2.17;0.80;;;16.20;99.90;;;;;;6255811;22;20198;-90
2022/05/28 00:19:20;;;;;;;2.47;1.13;;;16.00;99.90;;;;;;6256356;22;20191;-88
2022/05/28 00:21:51;;;;;;;3.50;1.20;;;16.30;99.90;;;;;;6252145;22;20175;-90
2022/05/28 00:24:22;;;;;;;1.77;0.80;;;16.50;99.90;;;;;;6251034;23;20227;-91
2022/05/28 00:26:53;;;;;;;3.77;1.10;;;16.50;99.90;;;;;;6256282;22;20200;-90
2022/05/28 00:29:24;;;;;;;2.53;1.00;;;16.80;99.90;;;;;;6253800;23;20238;-90
2022/05/28 00:31:58;;;;;;;1.67;1.00;;;17.00;99.90;;;;;;6250560;22;20176;-89
2022/05/28 00:34:31;;;;;;;2.80;1.10;;;16.70;99.90;;;;;;6251842;22;20164;-90
2022/05/28 00:37:03;;;;;;;3.23;1.00;;;16.90;99.90;;;;;;6264732;22;20180;-91
2022/05/28 00:39:35;;;;;;;3.27;1.67;;;16.90;99.90;;;;;;6268802;22;20175;-91
2022/05/28 00:42:07;;;;;;;3.70;0.83;;;16.80;99.90;;;;;;6271796;22;20171;-90
2022/05/28 00:44:38;;;;;;;2.73;1.00;;;16.30;99.90;;;;;;6272623;22;20228;-89
2022/05/28 00:47:09;;;;;;;3.53;1.10;;;16.30;99.90;;;;;;6269633;22;20204;-90
2022/05/28 00:49:43;;;;;;;3.30;0.80;;;16.20;99.90;;;;;;6255976;23;20170;-90
2022/05/28 00:52:16;;;;;;;3.13;0.93;;;16.00;99.90;;;;;;6254290;22;20171;-90
2022/05/28 00:54:49;;;;;;;1.53;0.93;;;15.80;99.90;;;;;;6257788;23;20615;-89
2022/05/28 00:57:22;;;;;;;2.53;1.33;;;15.90;99.90;;;;;;6255032;22;20237;-89
2022/05/28 00:59:54;;;;;;;3.27;0.90;;;16.10;99.90;;;;;;6253888;22;20202;-90
2022/05/28 01:02:37;;;;;;;1.97;0.70;;;16.40;99.90;;;;;;6256746;22;20176;-90
2022/05/28 01:05:17;;;;;;;3.17;0.73;;;16.60;99.90;;;;;;6256456;22;20164;-88
2022/05/28 01:08:01;;;;;;;1.83;0.60;;;16.70;99.90;;;;;;6258981;22;20180;-90
2022/05/28 01:10:42;;;;;;;1.23;0.57;;;16.50;99.90;;;;;;6265671;22;20167;-90
2022/05/28 01:15:55;;;;;;;1.47;0.67;;;16.50;99.90;;;;;;6258588;22;20187;-90
2022/05/28 01:18:33;;;;;;;2.97;0.87;;;16.60;99.90;;;;;;6257287;23;20202;-90
2022/05/28 01:21:13;;;;;;;2.50;0.90;;;16.80;99.90;;;;;;6256310;23;20238;-89
2022/05/28 01:23:53;;;;;;;1.43;0.90;;;17.20;99.90;;;;;;6258107;23;20206;-90
2022/05/28 01:26:33;;;;;;;3.63;0.80;;;17.30;99.90;;;;;;6256126;23;20226;-90
2022/05/28 01:29:10;;;;;;;4.63;1.03;;;17.00;99.90;;;;;;6232712;23;20195;-90
2022/05/28 01:31:42;;;;;;;2.50;0.77;;;17.50;99.90;;;;;;6254122;23;20184;-89
2022/05/28 01:34:14;;;;;;;5.10;1.00;;;18.00;99.90;;;;;;6258316;22;20246;-89
2022/05/28 01:36:47;;;;;;;1.23;0.77;;;19.00;99.90;;;;;;6233900;23;20168;-89
2022/05/28 01:39:21;;;;;;;0.60;0.50;;;19.00;99.90;;;;;;6260795;23;20179;-90
2022/05/28 01:41:53;;;;;;;2.57;0.70;;;17.90;99.90;;;;;;6265994;23;20191;-88
2022/05/28 01:44:29;;;;;;;4.67;0.70;;;17.70;99.90;;;;;;6267533;22;20160;-90
2022/05/28 01:47:00;;;;;;;1.17;0.60;;;17.20;99.90;;;;;;6261997;23;20210;-90
2022/05/28 01:49:33;;;;;;;1.60;0.83;;;16.10;99.90;;;;;;6266340;22;20214;-91
2022/05/28 01:52:05;;;;;;;1.83;0.70;;;15.90;99.90;;;;;;6265557;23;20168;-90
2022/05/28 01:54:43;;;;;;;5.60;1.03;;;16.00;99.90;;;;;;6263790;23;20191;-89
2022/05/28 01:57:15;;;;;;;3.73;0.90;;;16.00;99.90;;;;;;6260188;22;20560;-87
2022/05/28 01:59:49;;;;;;;1.37;0.70;;;15.40;99.90;;;;;;6262839;22;20194;-88
2022/05/28 02:02:21;;;;;;;2.63;0.80;;;15.40;99.90;;;;;;6266142;22;20175;-91
2022/05/28 02:04:52;;;;;;;1.77;0.60;;;15.30;99.90;;;;;;6259853;22;20187;-89
2022/05/28 02:07:24;;;;;;;2.63;1.07;;;15.30;99.90;;;;;;6258660;23;20195;-89
2022/05/28 02:10:00;;;;;;;1.63;0.70;;;15.20;99.90;;;;;;6253419;22;20168;-89
2022/05/28 02:12:33;;;;;;;1.30;0.50;;;14.80;99.90;;;;;;6253372;23;20253;-90
2022/05/28 02:15:17;;;;;;;1.77;0.83;;;14.80;99.90;;;;;;6254063;22;20168;-91
2022/05/28 02:17:52;;;;;;;2.00;0.50;;;15.00;99.90;;;;;;6261166;22;20175;-90
2022/05/28 02:20:30;;;;;;;1.27;0.50;;;15.20;99.90;;;;;;6271836;22;20182;-89
2022/05/28 02:23:26;;;;;;;1.20;0.60;;;15.40;99.90;;;;;;6273448;22;20207;-90
2022/05/28 02:26:02;;;;;;;1.30;0.60;;;15.00;99.90;;;;;;6271533;22;20202;-90
2022/05/28 02:28:36;;;;;;;1.40;0.60;;;15.40;99.90;;;;;;6265970;22;20168;-90
2022/05/28 02:31:16;;;;;;;1.33;0.53;;;15.50;99.90;;;;;;6267752;22;20175;-90
2022/05/28 02:33:49;;;;;;;0.57;0.40;;;15.30;99.90;;;;;;6269452;22;20174;-90
2022/05/28 02:36:20;;;;;;;1.50;0.57;;;15.20;99.90;;;;;;6263257;22;20198;-91
2022/05/28 02:38:52;;;;;;;0.83;0.40;;;15.20;99.90;;;;;;6263674;23;20479;-90
2022/05/28 02:41:24;;;;;;;3.83;0.60;;;14.70;99.90;;;;;;6264596;22;20206;-91
2022/05/28 02:43:55;;;;;;;1.13;0.50;;;14.60;99.90;;;;;;6264546;23;20255;-90
2022/05/28 02:46:32;;;;;;;1.97;0.70;;;14.40;99.90;;;;;;6265292;22;20199;-90
2022/05/28 02:49:03;;;;;;;1.53;0.47;;;14.40;99.90;;;;;;6265152;22;20163;-91
2022/05/28 02:51:34;;;;;;;1.83;0.73;;;14.20;99.90;;;;;;6265224;22;20179;-90
2022/05/28 02:54:06;;;;;;;1.40;0.87;;;14.20;99.90;;;;;;6266452;23;20171;-90
2022/05/28 02:56:37;;;;;;;2.10;0.70;;;14.20;99.90;;;;;;6267356;22;20270;-85
2022/05/28 02:59:08;;;;;;;1.60;0.77;;;14.00;99.90;;;;;;6273926;22;20214;-90
2022/05/28 03:01:42;;;;;;;1.67;0.60;;;13.80;99.90;;;;;;6271891;22;20171;-90
2022/05/28 03:04:14;;;;;;;1.90;0.70;;;13.80;99.90;;;;;;6271234;22;20214;-90
2022/05/28 03:06:46;;;;;;;3.60;0.70;;;13.80;99.90;;;;;;6268197;23;20221;-89
2022/05/28 03:09:18;;;;;;;3.07;0.90;;;13.80;99.90;;;;;;6259863;23;20198;-90
2022/05/28 03:11:49;;;;;;;1.63;0.63;;;13.80;99.90;;;;;;6232136;23;20175;-89
2022/05/28 03:14:20;;;;;;;1.47;0.73;;;13.70;99.90;;;;;;6264667;23;20168;-89
2022/05/28 03:16:54;;;;;;;2.03;0.83;;;13.60;99.90;;;;;;6266291;23;20172;-89
2022/05/28 03:19:25;;;;;;;2.97;1.00;;;13.50;99.90;;;;;;6265542;23;20194;-89
2022/05/28 03:21:57;;;;;;;2.50;0.80;;;13.50;99.90;;;;;;6260926;23;20167;-90
2022/05/28 03:24:28;;;;;;;2.83;0.80;;;13.40;99.90;;;;;;6262335;23;20172;-89
2022/05/28 03:26:59;;;;;;;3.43;0.90;;;13.30;99.90;;;;;;6252218;23;20199;-90
2022/05/28 03:29:30;;;;;;;4.53;1.10;;;13.20;99.90;;;;;;6263457;23;20168;-90
2022/05/28 03:32:03;;;;;;;1.43;0.70;;;13.10;99.90;;;;;;6269248;23;20164;-90
2022/05/28 03:34:35;;;;;;;3.50;0.80;;;13.00;99.90;;;;;;6240849;23;20207;-90
2022/05/28 03:37:06;;;;;;;3.80;1.00;;;13.10;99.90;;;;;;6265718;22;20172;-89
2022/05/28 03:39:37;;;;;;;1.90;0.80;;;13.00;99.90;;;;;;6268650;22;20583;-91
2022/05/28 03:42:09;;;;;;;1.67;0.80;;;12.80;99.90;;;;;;6266707;23;20176;-89
2022/05/28 03:44:40;;;;;;;2.63;1.10;;;12.70;99.90;;;;;;6269739;23;20231;-90
2022/05/28 03:47:14;;;;;;;2.63;0.80;;;12.70;99.90;;;;;;6272897;22;20323;-90
2022/05/28 03:49:46;;;;;;;2.73;0.93;;;12.50;99.90;;;;;;6272205;22;20168;-88
2022/05/28 03:52:18;;;;;;;3.17;1.27;;;12.60;99.90;;;;;;6251542;22;20223;-89
2022/05/28 03:54:50;;;;;;;1.57;0.80;;;12.50;99.90;;;;;;6268110;22;20179;-90
2022/05/28 03:57:26;;;;;;;2.60;0.83;;;12.40;99.90;;;;;;6266668;23;20164;-90
2022/05/28 03:59:58;;;;;;;2.67;1.40;;;12.40;99.90;;;;;;6263885;23;20175;-90
2022/05/28 04:02:32;;;;;;;1.97;1.30;;;12.30;99.90;;;;;;6265795;23;20172;-90
2022/05/28 04:05:04;;;;;;;3.17;1.07;;;12.30;99.90;;;;;;6263638;23;20172;-90
2022/05/28 04:07:36;;;;;;;2.77;0.83;;;12.20;99.90;;;;;;6239795;23;20191;-90
2022/05/28 04:10:09;;;;;;;3.10;0.83;;;12.20;99.90;;;;;;6264869;23;20184;-89
2022/05/28 04:12:40;;;;;;;1.87;0.80;;;12.10;99.90;;;;;;6261639;23;20214;-89
2022/05/28 04:15:13;;;;;;;2.73;1.10;;;12.10;99.90;;;;;;6253006;23;20621;-89
2022/05/28 04:17:46;;;;;;;2.70;1.20;;;12.10;99.90;;;;;;6251144;23;20537;-89
2022/05/28 04:20:17;;;;;;;1.10;0.70;;;12.00;99.90;;;;;;6250001;23;20187;-89
2022/05/28 04:22:48;;;;;;;4.83;1.30;;;12.00;99.90;;;;;;6251300;23;20171;-90
2022/05/28 04:28:05;;;;;;;5.47;1.90;;;11.90;99.90;;;;;;6262336;22;20215;-89
2022/05/28 04:30:37;;;;;;;5.57;1.07;;;11.90;99.90;;;;;;6255759;23;20282;-89
2022/05/28 04:33:10;;;;;;;3.13;1.40;;;11.90;99.90;;;;;;6251551;23;20199;-89
2022/05/28 04:35:41;;;;;;;2.83;1.00;;;11.90;99.90;;;;;;6249922;23;20218;-88
2022/05/28 04:38:14;;;;;;;2.63;1.30;;;11.90;99.90;;;;;;6225092;23;20527;-89
2022/05/28 04:40:45;;;;;;;2.37;1.00;;;11.90;99.90;;;;;;6249720;23;20238;-89
2022/05/28 04:43:18;;;;;;;2.20;0.90;;;11.80;99.90;;;;;;6253921;23;20206;-88
2022/05/28 04:45:49;;;;;;;3.43;1.07;;;11.80;99.90;;;;;;6256290;23;20171;-88
2022/05/28 04:48:22;;;;;;;2.57;0.90;;;11.80;99.90;;;;;;6250915;23;20199;-89
2022/05/28 04:50:55;;;;;;;2.83;1.10;;;11.80;99.90;;;;;;6250075;23;20233;-89
2022/05/28 04:53:26;;;;;;;3.57;1.07;;;11.80;99.90;;;;;;6250869;23;20176;-89
2022/05/28 04:55:57;;;;;;;3.77;1.00;;;11.80;99.90;;;;;;6249961;23;20503;-89
2022/05/28 04:58:29;;;;;;;3.17;1.40;;;11.90;99.90;;;;;;6250007;23;20490;-88
2022/05/28 05:01:00;;;;;;;2.27;1.17;;;11.90;99.90;;;;;;6249764;23;20182;-88
2022/05/28 05:03:34;;;;;;;4.83;1.30;;;11.80;99.90;;;;;;6250693;23;20168;-89
2022/05/28 05:06:05;;;;;;;2.77;1.30;;;11.80;99.90;;;;;;6252964;23;20476;-88
2022/05/28 05:08:44;;;;;;;2.00;1.13;;;11.80;99.90;;;;;;6251771;23;20187;-89
2022/05/28 05:11:16;;;;;;;2.43;1.40;;;11.80;99.90;;;;;;6256749;22;20195;-88
2022/05/28 05:13:47;;;;;;;3.53;1.60;;;11.80;99.90;;;;;;6272306;22;20163;-89
2022/05/28 05:16:19;;;;;;;1.73;1.40;;;11.80;99.90;;;;;;6246208;22;20159;-89
2022/05/28 05:18:52;;;;;;;5.10;1.50;;;11.80;99.90;;;;;;6262476;22;20176;-88
2022/05/28 05:21:23;;;;;;;2.97;1.37;;;11.80;99.90;;;;;;6249860;23;20216;-88
2022/05/28 05:23:55;;;;;;;3.10;1.23;;;11.80;99.90;;;;;;6255514;23;20198;-89
2022/05/28 05:26:26;;;;;;;3.70;1.20;;;11.90;99.90;;;;;;6252172;23;20204;-89
2022/05/28 05:28:58;;;;;;;2.57;1.27;;;11.90;99.90;;;;;;6250550;23;20511;-89
2022/05/28 05:31:28;;;;;;;4.50;1.50;;;11.90;99.90;;;;;;6252812;23;20175;-89
2022/05/28 05:34:01;;;;;;;4.10;1.57;;;12.00;99.90;;;;;;6250448;23;20279;-89
2022/05/28 05:36:32;;;;;;;4.00;1.47;;;11.80;99.90;;;;;;6227099;23;20652;-89
2022/05/28 05:39:03;;;;;;;3.63;1.40;;;11.80;99.90;;;;;;6251846;23;20183;-89
2022/05/28 05:41:39;;;;;;;4.47;2.00;;;11.70;99.90;;;;;;6251810;23;20182;-89
2022/05/28 05:44:12;;;;;;;2.60;1.20;;;11.70;99.90;;;;;;6250083;23;20181;-89
2022/05/28 05:46:45;;;;;;;3.90;1.60;;;11.70;99.90;;;;;;6252723;23;20188;-89
2022/05/28 05:49:19;;;;;;;4.70;1.73;;;11.70;99.90;;;;;;6242000;22;20207;-90
2022/05/28 05:51:51;;;;;;;4.07;2.00;;;11.50;99.90;;;;;;6251191;23;20164;-89
2022/05/28 05:54:24;;;;;;;3.57;1.70;;;11.50;99.90;;;;;;6251444;23;20186;-89
2022/05/28 05:56:55;;;;;;;4.40;1.93;;;11.40;99.90;;;;;;6251378;23;20175;-89
2022/05/28 05:59:26;;;;;;;6.10;1.60;;;11.40;99.90;;;;;;6251646;23;20229;-89
2022/05/28 06:01:57;;;;;;;3.70;1.67;;;11.30;99.90;;;;;;6252569;23;20172;-90
2022/05/28 06:04:30;;;;;;;4.17;1.60;;;11.30;99.90;;;;;;6251819;23;20199;-89
2022/05/28 06:07:01;;;;;;;7.03;2.00;;;11.20;99.90;;;;;;6252213;23;20241;-89
2022/05/28 06:09:32;;;;;;;2.37;1.40;;;11.20;99.90;;;;;;6251466;23;20513;-90
2022/05/28 06:12:03;;;;;;;5.07;2.00;;;11.20;99.90;;;;;;6252460;23;20172;-90
2022/05/28 06:14:35;;;;;;;4.40;1.60;;;11.20;99.90;;;;;;6252050;23;20175;-90
2022/05/28 06:17:06;;;;;;;2.80;1.93;;;11.10;99.90;;;;;;6252893;23;20182;-89
2022/05/28 06:19:39;;;;;;;3.80;1.63;;;11.00;99.90;;;;;;6231615;23;20447;-90
2022/05/28 06:22:11;;;;;;;4.20;1.60;;;11.00;99.90;;;;;;6258447;23;20179;-90
2022/05/28 06:24:41;;;;;;;4.50;2.10;;;11.00;99.90;;;;;;6252548;23;20175;-90
2022/05/28 06:27:16;;;;;;;2.07;1.47;;;11.10;99.90;;;;;;6251155;23;20485;-89
2022/05/28 06:29:47;;;;;;;4.37;1.73;;;11.10;99.90;;;;;;6249666;23;20258;-89
2022/05/28 06:32:18;;;;;;;2.73;1.33;;;11.10;99.90;;;;;;6225773;23;20168;-90
2022/05/28 06:34:52;;;;;;;4.17;1.93;;;11.10;99.90;;;;;;6251246;23;20239;-90
2022/05/28 06:37:23;;;;;;;5.60;1.73;;;11.20;99.90;;;;;;6251620;23;20168;-89
2022/05/28 06:39:54;;;;;;;3.77;1.60;;;11.20;99.90;;;;;;6250816;23;20172;-90
2022/05/28 06:42:26;;;;;;;5.30;1.50;;;11.20;99.90;;;;;;6251359;23;20168;-90
2022/05/28 06:44:58;;;;;;;3.33;1.47;;;11.20;99.90;;;;;;6251015;23;20179;-89
2022/05/28 06:47:29;;;;;;;4.20;1.37;;;11.20;99.90;;;;;;6200677;23;20216;-90
2022/05/28 06:52:50;;;;;;;2.27;1.40;;;11.20;99.90;;;;;;6258949;23;20175;-90
2022/05/28 06:55:21;;;;;;;6.43;1.70;;;11.20;99.90;;;;;;6255992;23;20638;-89
2022/05/28 06:57:52;;;;;;;3.73;1.60;;;11.20;99.90;;;;;;6258291;23;20168;-90
2022/05/28 07:00:23;;;;;;;3.13;1.43;;;11.20;99.90;;;;;;6249717;23;20183;-90
2022/05/28 07:02:55;;;;;;;10.13;1.80;;;11.30;99.90;;;;;;6258809;23;20250;-89
2022/05/28 07:05:30;;;;;;;5.43;1.60;;;11.20;99.90;;;;;;6250942;23;20168;-89
2022/05/28 07:08:01;;;;;;;3.20;1.20;;;11.20;99.90;;;;;;6250295;22;20236;-89
2022/05/28 07:10:32;;;;;;;4.53;1.57;;;11.20;99.90;;;;;;6250058;22;20214;-90
2022/05/28 07:13:03;;;;;;;2.67;1.40;;;11.20;99.90;;;;;;6250972;22;20183;-89
2022/05/28 07:15:35;;;;;;;6.77;1.40;;;11.20;99.90;;;;;;6251531;22;20188;-89
2022/05/28 07:18:07;;;;;;;4.03;1.57;;;11.20;99.90;;;;;;6252359;22;20168;-89
2022/05/28 07:20:41;;;;;;;5.23;1.90;;;11.10;99.90;;;;;;6252400;22;20656;-89
2022/05/28 07:23:14;;;;;;;4.03;1.60;;;11.20;99.90;;;;;;6261874;23;20182;-88
2022/05/28 07:25:46;;;;;;;4.63;1.40;;;11.20;99.90;;;;;;6270159;22;20191;-89
2022/05/28 07:28:27;;;;;;;4.00;1.30;;;11.10;99.90;;;;;;6272422;22;20154;-89
2022/05/28 07:31:00;;;;;;;3.70;1.40;;;11.20;99.90;;;;;;6269616;22;20206;-89
2022/05/28 07:33:33;;;;;;;4.23;1.73;;;11.10;99.90;;;;;;6257497;22;20199;-88
2022/05/28 07:36:07;;;;;;;3.23;1.80;;;11.00;99.90;;;;;;6257884;22;20165;-89
2022/05/28 07:38:41;;;;;;;2.83;1.40;;;11.00;99.90;;;;;;6251363;22;20183;-90
2022/05/28 07:41:14;;;;;;;2.73;1.40;;;10.90;99.90;;;;;;6249847;22;20167;-90
2022/05/28 07:43:47;;;;;;;1.80;1.20;;;11.00;99.90;;;;;;6251163;22;20176;-90
2022/05/28 07:46:21;;;;;;;5.17;1.47;;;11.00;99.90;;;;;;6250923;23;20661;-89
2022/05/28 07:48:52;;;;;;;4.40;1.20;;;11.00;99.90;;;;;;6250440;23;20247;-90
2022/05/28 07:51:26;;;;;;;5.40;1.50;;;11.00;99.90;;;;;;6249781;22;20240;-88
2022/05/28 07:53:58;;;;;;;3.33;1.30;;;10.90;99.90;;;;;;6249828;22;20468;-90
2022/05/28 07:56:29;;;;;;;4.37;1.50;;;10.90;99.90;;;;;;6250269;22;20164;-90
2022/05/28 07:59:00;;;;;;;3.90;1.37;;;10.80;99.90;;;;;;6250817;22;20191;-88
2022/05/28 08:01:35;;;;;;;5.63;1.43;;;10.90;99.90;;;;;;6249613;22;20218;-91
2022/05/28 08:04:10;;;;;;;5.10;1.60;;;10.90;99.90;;;;;;6250614;22;20555;-90
2022/05/28 08:06:43;;;;;;;3.60;1.43;;;10.70;99.90;;;;;;6250580;22;20167;-90
2022/05/28 08:09:15;;;;;;;3.47;1.40;;;10.70;99.90;;;;;;6250088;23;20279;-89
2022/05/28 08:11:46;;;;;;;3.60;1.60;;;10.70;99.90;;;;;;6248724;23;20180;-89
2022/05/28 08:14:16;;;;;;;4.40;1.90;;;10.60;99.90;;;;;;6250226;23;20175;-89
2022/05/28 08:16:48;;;;;;;2.07;1.40;;;10.60;99.90;;;;;;6250800;23;20318;-89
2022/05/28 08:19:19;;;;;;;5.70;1.90;;;10.70;99.90;;;;;;6224968;23;20172;-88
2022/05/28 08:24:40;;;;;;;2.17;1.40;;;10.60;99.90;;;;;;6250923;23;20183;-89
2022/05/28 08:27:11;;;;;;;4.20;1.53;;;10.60;99.90;;;;;;6227912;22;20175;-89
2022/05/28 08:29:42;;;;;;;3.07;1.50;;;10.60;99.90;;;;;;6249963;23;20200;-89
2022/05/28 08:32:18;;;;;;;4.47;1.63;;;10.50;99.90;;;;;;6257919;23;20199;-89
2022/05/28 08:34:49;;;;;;;2.63;1.40;;;10.50;99.90;;;;;;6258396;23;20171;-89
2022/05/28 08:37:23;;;;;;;3.17;1.50;;;10.50;99.90;;;;;;6251014;23;20184;-89
2022/05/28 08:39:54;;;;;;;2.03;1.20;;;10.50;99.90;;;;;;6249898;23;20218;-89
2022/05/28 08:42:29;;;;;;;5.67;1.80;;;10.50;99.90;;;;;;6251482;23;20258;-89
2022/05/28 08:45:05;;;;;;;2.80;1.50;;;10.50;99.90;;;;;;6251102;23;20193;-89
2022/05/28 08:47:39;;;;;;;2.67;1.40;;;10.50;99.90;;;;;;6250599;23;20584;-88
2022/05/28 08:50:12;;;;;;;2.00;1.57;;;10.40;99.90;;;;;;6250643;23;20281;-90
2022/05/28 08:52:49;;;;;;;2.80;1.57;;;10.50;99.90;;;;;;6251077;23;20176;-89
2022/05/28 08:55:24;;;;;;;2.43;1.50;;;10.50;99.90;;;;;;6251083;23;20221;-90
2022/05/28 08:58:00;;;;;;;3.30;1.50;;;10.50;99.90;;;;;;6251997;23;20163;-90
2022/05/28 09:00:37;;;;;;;3.93;1.57;;;10.40;99.90;;;;;;6253655;23;20179;-90
2022/05/28 09:03:10;;;;;;;2.67;1.43;;;10.50;99.90;;;;;;6256435;23;20240;-89
2022/05/28 09:05:49;;;;;;;2.40;1.47;;;10.50;99.90;;;;;;6269348;23;20156;-89
2022/05/28 09:08:28;;;;;;;5.73;1.63;;;10.50;99.90;;;;;;6268283;23;20241;-90
2022/05/28 09:11:07;;;;;;;3.80;1.67;;;10.50;99.90;;;;;;6260613;23;20218;-90
2022/05/28 09:13:41;;;;;;;6.50;1.73;;;10.40;99.90;;;;;;6252071;23;20503;-91
2022/05/28 09:16:26;;;;;;;4.20;1.37;;;10.40;99.90;;;;;;6252593;23;20465;-90
2022/05/28 09:19:02;;;;;;;2.87;1.37;;;10.40;99.90;;;;;;6251763;23;20179;-90
2022/05/28 09:21:34;;;;;;;5.10;1.43;;;10.40;99.90;;;;;;6252822;23;20168;-90
2022/05/28 09:24:11;;;;;;;2.20;1.33;;;10.40;99.90;;;;;;6264584;23;20214;-90
2022/05/28 09:26:54;;;;;;;3.50;1.43;;;10.40;99.90;;;;;;6264967;23;20198;-90
2022/05/28 09:29:38;;;;;;;3.77;1.50;;;10.40;99.90;;;;;;6267067;23;20168;-90
2022/05/28 09:32:15;;;;;;;5.43;1.83;;;10.40;99.90;;;;;;6271925;22;20188;-89
2022/05/28 09:35:01;;;;;;;5.37;1.70;;;10.30;99.90;;;;;;6274505;22;20175;-90
2022/05/28 09:37:43;;;;;;;3.27;1.40;;;10.30;99.90;;;;;;6274344;22;20228;-91
2022/05/28 09:40:21;;;;;;;3.70;1.30;;;10.30;99.90;;;;;;6273288;22;20156;-90
2022/05/28 09:43:06;;;;;;;5.97;1.70;;;10.30;99.90;;;;;;6274012;22;20168;-90
2022/05/28 09:45:47;;;;;;;5.80;1.60;;;10.40;99.90;;;;;;6273615;22;20184;-90
2022/05/28 09:48:23;;;;;;;5.00;1.40;;;10.30;99.90;;;;;;6273704;22;20151;-89
2022/05/28 09:50:54;;;;;;;1.93;1.20;;;10.40;99.90;;;;;;6269969;23;20179;-90
2022/05/28 09:56:22;;;;;;;4.50;1.53;;;10.40;99.90;;;;;;6267761;23;20163;-90
2022/05/28 09:58:54;;;;;;;5.07;1.63;;;10.40;99.90;;;;;;6273194;22;20167;-90
2022/05/28 10:01:27;;;;;;;4.53;1.73;;;10.40;99.90;;;;;;6273150;22;20156;-89
2022/05/28 10:06:56;;;;;;;4.40;1.60;;;10.40;99.90;;;;;;6273684;22;20164;-89
2022/05/28 10:09:29;;;;;;;4.67;1.40;;;10.30;99.90;;;;;;6270976;22;20218;-92
2022/05/28 10:12:04;;;;;;;4.33;1.63;;;10.30;99.90;;;;;;6267090;23;20261;-89
2022/05/28 10:14:35;;;;;;;2.50;1.20;;;10.30;99.90;;;;;;6257029;23;20229;-90
2022/05/28 10:17:07;;;;;;;3.37;1.40;;;10.30;99.90;;;;;;6256041;23;20176;-90
2022/05/28 10:19:42;;;;;;;3.70;1.40;;;10.30;99.90;;;;;;6255279;23;20195;-90
2022/05/28 10:22:17;;;;;;;4.23;1.53;;;10.40;99.90;;;;;;6255390;23;20168;-89
2022/05/28 10:24:52;;;;;;;4.03;1.70;;;10.40;99.90;;;;;;6255461;23;20225;-90
2022/05/28 10:27:30;;;;;;;4.70;1.60;;;10.40;99.90;;;;;;6255702;23;20167;-90
2022/05/28 10:30:04;;;;;;;2.67;1.57;;;10.30;99.90;;;;;;6256293;23;20178;-90
2022/05/28 10:32:38;;;;;;;4.90;1.20;;;10.30;99.90;;;;;;6258212;23;20586;-90
2022/05/28 10:35:15;;;;;;;3.80;1.60;;;10.20;99.90;;;;;;6257698;23;20545;-90
2022/05/28 10:37:46;;;;;;;3.07;1.37;;;10.20;99.90;;;;;;6259464;23;20164;-90
2022/05/28 10:40:24;;;;;;;8.50;2.03;;;10.10;99.90;;;;;;6253554;23;20180;-89
2022/05/28 10:42:59;;;;;;;4.13;1.70;;;10.10;99.90;;;;;;6254085;23;20225;-90
2022/05/28 10:45:42;;;;;;;2.60;1.43;;;10.10;99.90;;;;;;6258466;23;20164;-91
2022/05/28 10:48:24;;;;;;;3.13;1.33;;;10.10;99.90;;;;;;6254033;23;20210;-90
2022/05/28 10:51:02;;;;;;;2.60;1.60;;;10.10;99.90;;;;;;6254371;23;20210;-90
2022/05/28 10:53:51;;;;;;;3.67;1.40;;;10.00;99.90;;;;;;6257420;23;20193;-90
2022/05/28 10:56:34;;;;;;;3.83;1.40;;;10.00;99.90;;;;;;6231985;23;20186;-90
2022/05/28 10:59:23;;;;;;;5.83;1.60;;;9.90;99.90;;;;;;6254678;23;20175;-90
2022/05/28 11:02:06;;;;;;;4.03;1.50;;;9.90;99.90;;;;;;6253659;23;20180;-89
2022/05/28 11:04:57;;;;;;;7.90;1.73;;;9.90;99.90;;;;;;6229912;23;20168;-91
2022/05/28 11:07:51;;;;;;;3.30;1.10;;;9.90;99.90;;;;;;6255154;23;20630;-88
2022/05/28 11:10:43;;;;;;;3.97;1.40;;;9.90;99.90;;;;;;6253223;23;20245;-89
2022/05/28 11:13:37;;;;;;;2.70;1.40;;;9.80;99.90;;;;;;6255570;23;20540;-89
2022/05/28 11:16:30;;;;;;;4.60;1.60;;;9.70;99.90;;;;;;6254386;23;20168;-89
2022/05/28 11:19:19;;;;;;;2.97;1.80;;;9.60;99.90;;;;;;6256349;23;20219;-89
2022/05/28 11:22:05;;;;;;;4.17;1.70;;;9.60;99.90;;;;;;6255812;23;20226;-89
2022/05/28 11:24:53;;;;;;;5.90;1.60;;;9.50;99.90;;;;;;6254808;23;20195;-89
2022/05/28 11:27:41;;;;;;;3.83;1.70;;;9.50;99.90;;;;;;6256029;23;20218;-89
2022/05/28 11:30:17;;;;;;;5.70;1.97;;;9.50;99.90;;;;;;6253692;23;20234;-89
2022/05/28 11:32:56;;;;;;;4.87;2.10;;;9.50;99.90;;;;;;6252592;23;20203;-89
2022/05/28 11:35:37;;;;;;;5.20;2.00;;;9.50;99.90;;;;;;6252620;23;20629;-89
2022/05/28 11:38:15;;;;;;;4.13;2.40;;;9.50;99.90;;;;;;6228283;23;20180;-89
2022/05/28 11:41:07;;;;;;;3.80;2.43;;;9.50;99.90;;;;;;6253196;23;20168;-89
2022/05/28 11:43:44;;;;;;;5.37;2.40;;;9.60;99.90;;;;;;6253740;23;20172;-89
2022/05/28 11:46:23;;;;;;;5.10;2.37;;;9.50;99.90;;;;;;6252250;23;20179;-89
2022/05/28 11:51:55;;;;;;;4.93;2.50;;;9.50;99.90;;;;;;6270591;22;20210;-89
2022/05/28 11:54:33;;;;;;;7.33;2.43;;;9.60;99.90;;;;;;6264118;23;20213;-89
2022/05/28 11:57:06;;;;;;;4.87;3.00;;;9.50;99.90;;;;;;6253989;23;20164;-89
2022/05/28 11:59:39;;;;;;;5.80;2.50;;;9.50;99.90;;;;;;6253713;23;20180;-90
2022/05/28 12:02:15;;;;;;;4.43;2.37;;;9.50;99.90;;;;;;6255589;23;20621;-90
2022/05/28 12:04:48;;;;;;;4.13;2.70;;;9.50;99.90;;;;;;6257117;23;20186;-90
2022/05/28 12:07:32;;;;;;;4.90;2.47;;;9.40;99.90;;;;;;6253018;23;20203;-90
2022/05/28 12:10:04;;;;;;;6.17;2.60;;;9.30;99.90;;;;;;6250180;23;20176;-90
2022/05/28 12:12:41;;;;;;;4.73;2.77;;;9.30;99.90;;;;;;6252214;23;20261;-89
2022/05/28 12:15:26;;;;;;;4.93;2.53;;;9.30;99.90;;;;;;6253402;23;20171;-89
2022/05/28 12:18:02;;;;;;;5.40;2.70;;;9.30;99.90;;;;;;6252038;23;20644;-89
2022/05/28 12:20:37;;;;;;;5.77;2.83;;;9.20;99.90;;;;;;6251399;23;20179;-90
2022/05/28 12:23:09;;;;;;;4.60;2.60;;;9.10;99.90;;;;;;6251983;23;20606;-90
2022/05/28 12:25:41;;;;;;;8.47;3.00;;;9.00;99.90;;;;;;6251540;23;20172;-90
2022/05/28 12:28:24;;;;;;;5.73;2.60;;;8.80;99.90;;;;;;6251303;23;20172;-90
2022/05/28 12:30:58;;;;;;;5.33;2.80;;;8.70;99.90;;;;;;6250496;23;20229;-89
2022/05/28 12:33:31;;;;;;;4.93;2.80;;;8.70;99.90;;;;;;6250985;23;20254;-90
2022/05/28 12:36:26;;;;;;;4.67;2.90;;;8.70;99.90;;;;;;6252377;23;20175;-89
2022/05/28 12:39:04;;;;;;;3.80;2.53;;;8.60;99.90;;;;;;6261499;23;20578;-89
2022/05/28 12:41:37;;;;;;;3.93;2.50;;;8.70;99.90;;;;;;6252218;23;20171;-90
2022/05/28 12:44:19;;;;;;;3.70;2.57;;;8.80;99.90;;;;;;6251054;23;20171;-90
2022/05/28 12:46:54;;;;;;;5.83;2.60;;;8.90;99.90;;;;;;6250377;23;20179;-89
2022/05/28 12:49:31;;;;;;;5.40;2.50;;;9.00;99.90;;;;;;6251693;23;20546;-89
2022/05/28 12:52:17;;;;;;;4.83;2.20;;;9.10;99.90;;;;;;6225167;23;20207;-89
2022/05/28 12:54:49;;;;;;;4.53;2.63;;;9.20;99.90;;;;;;6252344;23;20175;-90
2022/05/28 12:57:31;;;;;;;4.17;2.30;;;9.40;99.90;;;;;;6227571;23;20164;-89
2022/05/28 13:00:06;;;;;;;6.53;2.27;;;9.50;99.90;;;;;;6251730;23;20244;-88
2022/05/28 13:02:42;;;;;;;5.10;2.37;;;9.60;99.90;;;;;;6253288;23;20237;-89
2022/05/28 13:05:17;;;;;;;4.50;1.80;;;9.70;99.90;;;;;;6252781;23;20182;-89
2022/05/28 13:07:54;;;;;;;3.23;1.73;;;9.80;99.90;;;;;;6252884;23;20183;-90
2022/05/28 13:10:27;;;;;;;7.40;2.33;;;9.90;99.90;;;;;;6253425;23;20168;-88
2022/05/28 13:13:15;;;;;;;3.73;1.67;;;10.00;99.90;;;;;;6252588;23;20269;-89
2022/05/28 13:16:27;;;;;;;1.53;1.43;;;10.10;99.90;;;;;;6254445;22;20190;-89
2022/05/28 13:19:36;;;;;;;3.10;1.90;;;10.20;99.90;;;;;;6252552;23;20164;-89
2022/05/28 13:22:22;;;;;;;2.43;1.30;;;10.30;99.90;;;;;;6210193;23;20179;-89
2022/05/28 13:25:17;;;;;;;4.07;1.50;;;10.40;99.90;;;;;;6253403;23;20175;-89
2022/05/28 13:28:32;;;;;;;3.87;1.43;;;10.40;99.90;;;;;;6227151;23;20195;-89
2022/05/28 13:31:07;;;;;;;3.60;1.60;;;10.50;99.90;;;;;;6194623;23;20196;-89
2022/05/28 13:33:41;;;;;;;3.23;1.40;;;10.70;99.90;;;;;;6254879;23;20199;-89
2022/05/28 13:36:16;;;;;;;4.30;1.60;;;10.80;99.90;;;;;;6251477;23;20168;-89
2022/05/28 13:38:50;;;;;;;3.67;1.50;;;10.90;99.90;;;;;;6253912;23;20483;-89
2022/05/28 13:41:26;;;;;;;8.07;2.33;;;10.90;99.90;;;;;;6254668;23;20179;-89
2022/05/28 13:44:04;;;;;;;4.97;1.73;;;11.00;99.90;;;;;;6254827;23;20217;-89
2022/05/28 13:46:38;;;;;;;2.53;1.40;;;11.10;99.90;;;;;;6253725;23;20164;-89
2022/05/28 13:49:11;;;;;;;4.50;1.50;;;11.00;99.90;;;;;;6228374;23;20638;-89